CPA310 VHHH-ZJHK
Flight info
| Callsign | CPA310 |
|---|---|
| Flight time | 1h 2m |
| Altitude | 20000 |
| Route | PECAN V10 SIKOU/K0704S0610 A202 ISBIG |
| Aircraft | A20N/M-SDE2E3FGHIRWXY/LB1 |
Departure
| Time | 2026-04-21 13:11 |
|---|---|
| Airport | Hong Kong International Airport (VHHH) |
Arrival
| Time | 2026-04-21 14:14 |
|---|---|
| Airport | Haikou Meilan International Airport (ZJHK) |
| Time | Latitude | Longitude | Altitude | Speed | Heading |
|---|---|---|---|---|---|
| 2026-04-21 12:32 | 22.31784 | 113.93064 | 37 ft | 0 kts | 261° |
| 2026-04-21 12:55 | 22.31784 | 113.93065 | 37 ft | 2 kts | 261° |
| 2026-04-21 12:55 | 22.31788 | 113.93092 | 36 ft | 4 kts | 260° |
| 2026-04-21 12:55 | 22.31793 | 113.93114 | 34 ft | 4 kts | 259° |
| 2026-04-21 12:56 | 22.31790 | 113.93140 | 33 ft | 4 kts | 310° |
| 2026-04-21 12:56 | 22.31775 | 113.93153 | 35 ft | 0 kts | 341° |
| 2026-04-21 13:00 | 22.31784 | 113.93149 | 35 ft | 4 kts | 340° |
| 2026-04-21 13:01 | 22.31841 | 113.93127 | 37 ft | 9 kts | 340° |
| 2026-04-21 13:01 | 22.31873 | 113.93065 | 36 ft | 12 kts | 255° |
| 2026-04-21 13:01 | 22.31840 | 113.92966 | 36 ft | 16 kts | 251° |
| 2026-04-21 13:01 | 22.31797 | 113.92832 | 35 ft | 22 kts | 250° |
| 2026-04-21 13:02 | 22.31744 | 113.92667 | 34 ft | 24 kts | 251° |
| 2026-04-21 13:02 | 22.31683 | 113.92488 | 35 ft | 26 kts | 250° |
| 2026-04-21 13:02 | 22.31585 | 113.92180 | 34 ft | 17 kts | 251° |
| 2026-04-21 13:03 | 22.31553 | 113.92084 | 35 ft | 11 kts | 249° |
| 2026-04-21 13:03 | 22.31484 | 113.92070 | 36 ft | 12 kts | 160° |
| 2026-04-21 13:03 | 22.31394 | 113.92105 | 36 ft | 15 kts | 160° |
| 2026-04-21 13:03 | 22.31289 | 113.92144 | 37 ft | 17 kts | 160° |
| 2026-04-21 13:04 | 22.31171 | 113.92189 | 37 ft | 19 kts | 160° |
| 2026-04-21 13:04 | 22.31041 | 113.92239 | 37 ft | 21 kts | 160° |
| 2026-04-21 13:04 | 22.30910 | 113.92288 | 37 ft | 17 kts | 161° |
| 2026-04-21 13:04 | 22.30800 | 113.92329 | 37 ft | 11 kts | 160° |
| 2026-04-21 13:05 | 22.30723 | 113.92334 | 37 ft | 12 kts | 214° |
| 2026-04-21 13:05 | 22.30691 | 113.92247 | 36 ft | 14 kts | 250° |
| 2026-04-21 13:05 | 22.30650 | 113.92125 | 37 ft | 20 kts | 250° |
| 2026-04-21 13:05 | 22.30607 | 113.91988 | 37 ft | 20 kts | 251° |
| 2026-04-21 13:06 | 22.30561 | 113.91845 | 36 ft | 20 kts | 251° |
| 2026-04-21 13:06 | 22.30513 | 113.91694 | 37 ft | 22 kts | 251° |
| 2026-04-21 13:06 | 22.30460 | 113.91528 | 36 ft | 24 kts | 251° |
| 2026-04-21 13:06 | 22.30401 | 113.91346 | 36 ft | 26 kts | 251° |
| 2026-04-21 13:07 | 22.30353 | 113.91199 | 36 ft | 19 kts | 250° |
| 2026-04-21 13:07 | 22.30307 | 113.91057 | 37 ft | 21 kts | 251° |
| 2026-04-21 13:07 | 22.30256 | 113.90902 | 35 ft | 23 kts | 251° |
| 2026-04-21 13:07 | 22.30201 | 113.90732 | 35 ft | 25 kts | 250° |
| 2026-04-21 13:08 | 22.30162 | 113.90610 | 34 ft | 26 kts | 252° |
| 2026-04-21 13:08 | 22.30093 | 113.90396 | 36 ft | 22 kts | 250° |
| 2026-04-21 13:08 | 22.30058 | 113.90289 | 35 ft | 22 kts | 251° |
| 2026-04-21 13:08 | 22.30004 | 113.90124 | 36 ft | 24 kts | 250° |
| 2026-04-21 13:09 | 22.29951 | 113.89958 | 36 ft | 21 kts | 251° |
| 2026-04-21 13:09 | 22.29906 | 113.89818 | 36 ft | 15 kts | 251° |
| 2026-04-21 13:09 | 22.29862 | 113.89733 | 36 ft | 14 kts | 207° |
| 2026-04-21 13:09 | 22.29777 | 113.89753 | 36 ft | 14 kts | 161° |
| 2026-04-21 13:10 | 22.29687 | 113.89788 | 37 ft | 14 kts | 160° |
| 2026-04-21 13:10 | 22.29635 | 113.89832 | 37 ft | 9 kts | 96° |
| 2026-04-21 13:10 | 22.29657 | 113.89907 | 36 ft | 13 kts | 70° |
| 2026-04-21 13:10 | 22.29721 | 113.90105 | 35 ft | 59 kts | 72° |
| 2026-04-21 13:11 | 22.29930 | 113.90761 | 37 ft | 122 kts | 70° |
| 2026-04-21 13:11 | 22.30270 | 113.91798 | 65 ft | 165 kts | 71° |
| 2026-04-21 13:11 | 22.30689 | 113.92923 | 734 ft | 160 kts | 70° |
| 2026-04-21 13:11 | 22.31082 | 113.94059 | 1294 ft | 166 kts | 75° |
| 2026-04-21 13:12 | 22.31458 | 113.95324 | 1688 ft | 189 kts | 76° |
| 2026-04-21 13:12 | 22.31882 | 113.96767 | 2137 ft | 214 kts | 75° |
| 2026-04-21 13:12 | 22.32376 | 113.98359 | 2808 ft | 228 kts | 75° |
| 2026-04-21 13:12 | 22.32898 | 113.99977 | 3828 ft | 229 kts | 75° |
| 2026-04-21 13:13 | 22.33432 | 114.01623 | 4753 ft | 235 kts | 75° |
| 2026-04-21 13:13 | 22.33843 | 114.03333 | 5613 ft | 237 kts | 90° |
| 2026-04-21 13:13 | 22.33674 | 114.05094 | 6431 ft | 237 kts | 112° |
| 2026-04-21 13:13 | 22.32913 | 114.06662 | 7215 ft | 237 kts | 133° |
| 2026-04-21 13:14 | 22.31686 | 114.07839 | 7965 ft | 241 kts | 152° |
| 2026-04-21 13:14 | 22.30106 | 114.08589 | 8438 ft | 256 kts | 170° |
| 2026-04-21 13:14 | 22.28326 | 114.08751 | 9204 ft | 259 kts | 185° |
| 2026-04-21 13:14 | 22.26453 | 114.08697 | 9722 ft | 280 kts | 184° |
| 2026-04-21 13:15 | 22.24456 | 114.08661 | 10274 ft | 296 kts | 184° |
| 2026-04-21 13:15 | 22.22317 | 114.08634 | 10582 ft | 319 kts | 184° |
| 2026-04-21 13:15 | 22.20016 | 114.08633 | 10942 ft | 338 kts | 182° |
| 2026-04-21 13:15 | 22.17644 | 114.08629 | 11695 ft | 343 kts | 184° |
| 2026-04-21 13:16 | 22.15247 | 114.08615 | 12503 ft | 347 kts | 184° |
| 2026-04-21 13:16 | 22.12837 | 114.08608 | 13269 ft | 351 kts | 184° |
| 2026-04-21 13:16 | 22.10358 | 114.08611 | 14000 ft | 356 kts | 183° |
| 2026-04-21 13:16 | 22.07859 | 114.08620 | 14639 ft | 362 kts | 183° |
| 2026-04-21 13:17 | 22.05322 | 114.08632 | 15263 ft | 367 kts | 183° |
| 2026-04-21 13:17 | 22.02783 | 114.08645 | 15883 ft | 373 kts | 183° |
| 2026-04-21 13:17 | 22.00172 | 114.08659 | 16493 ft | 378 kts | 183° |
| 2026-04-21 13:17 | 21.97528 | 114.08673 | 17102 ft | 383 kts | 183° |
| 2026-04-21 13:18 | 21.94851 | 114.08687 | 17687 ft | 387 kts | 183° |
| 2026-04-21 13:18 | 21.92137 | 114.08701 | 18260 ft | 392 kts | 183° |
| 2026-04-21 13:18 | 21.89393 | 114.08715 | 18767 ft | 396 kts | 182° |
| 2026-04-21 13:18 | 21.86621 | 114.08729 | 19290 ft | 400 kts | 182° |
| 2026-04-21 13:19 | 21.83825 | 114.08743 | 19808 ft | 403 kts | 182° |
| 2026-04-21 13:19 | 21.81005 | 114.08757 | 20300 ft | 408 kts | 182° |
| 2026-04-21 13:19 | 21.78156 | 114.08771 | 20809 ft | 411 kts | 182° |
| 2026-04-21 13:19 | 21.75281 | 114.08785 | 21299 ft | 415 kts | 182° |
| 2026-04-21 13:20 | 21.72381 | 114.08800 | 21796 ft | 419 kts | 182° |
| 2026-04-21 13:20 | 21.69451 | 114.08814 | 22294 ft | 422 kts | 182° |
| 2026-04-21 13:20 | 21.66501 | 114.08813 | 22769 ft | 426 kts | 184° |
| 2026-04-21 13:20 | 21.63549 | 114.08517 | 23239 ft | 427 kts | 191° |
| 2026-04-21 13:21 | 21.60634 | 114.07850 | 23478 ft | 429 kts | 196° |
| 2026-04-21 13:21 | 21.57735 | 114.07087 | 23519 ft | 429 kts | 195° |
| 2026-04-21 13:21 | 21.54836 | 114.06327 | 23521 ft | 429 kts | 195° |
| 2026-04-21 13:21 | 21.51937 | 114.05572 | 23520 ft | 429 kts | 195° |
| 2026-04-21 13:22 | 21.49036 | 114.04819 | 23518 ft | 429 kts | 195° |
| 2026-04-21 13:22 | 21.46154 | 114.03995 | 23516 ft | 428 kts | 200° |
| 2026-04-21 13:22 | 21.43391 | 114.02827 | 23520 ft | 426 kts | 207° |
| 2026-04-21 13:22 | 21.40797 | 114.01314 | 23520 ft | 424 kts | 214° |
| 2026-04-21 13:23 | 21.38335 | 113.99565 | 23518 ft | 424 kts | 216° |
| 2026-04-21 13:23 | 21.35878 | 113.97816 | 23515 ft | 424 kts | 215° |
| 2026-04-21 13:23 | 21.33416 | 113.96072 | 23517 ft | 424 kts | 215° |
| 2026-04-21 13:23 | 21.30953 | 113.94332 | 23517 ft | 424 kts | 215° |
| 2026-04-21 13:24 | 21.28492 | 113.92594 | 23518 ft | 424 kts | 215° |
| 2026-04-21 13:24 | 21.26029 | 113.90855 | 23514 ft | 424 kts | 215° |
| 2026-04-21 13:24 | 21.23569 | 113.89119 | 23515 ft | 424 kts | 215° |
| 2026-04-21 13:24 | 21.21107 | 113.87382 | 23517 ft | 424 kts | 215° |
| 2026-04-21 13:25 | 21.18645 | 113.85646 | 23515 ft | 423 kts | 215° |
| 2026-04-21 13:25 | 21.16183 | 113.83909 | 23516 ft | 424 kts | 215° |
| 2026-04-21 13:25 | 21.13721 | 113.82175 | 23517 ft | 424 kts | 215° |
| 2026-04-21 13:25 | 21.11291 | 113.80391 | 23514 ft | 422 kts | 221° |
| 2026-04-21 13:26 | 21.09256 | 113.78207 | 23521 ft | 419 kts | 234° |
| 2026-04-21 13:26 | 21.07710 | 113.75531 | 23515 ft | 417 kts | 247° |
| 2026-04-21 13:26 | 21.06701 | 113.72632 | 23521 ft | 416 kts | 252° |
| 2026-04-21 13:26 | 21.05765 | 113.69707 | 23519 ft | 415 kts | 252° |
| 2026-04-21 13:27 | 21.04824 | 113.66785 | 23520 ft | 415 kts | 252° |
| 2026-04-21 13:27 | 21.03880 | 113.63864 | 23515 ft | 415 kts | 252° |
| 2026-04-21 13:27 | 21.02934 | 113.60942 | 23513 ft | 415 kts | 252° |
| 2026-04-21 13:27 | 21.02001 | 113.58063 | 23515 ft | 415 kts | 252° |
| 2026-04-21 13:28 | 21.01053 | 113.55143 | 23515 ft | 415 kts | 252° |
| 2026-04-21 13:28 | 21.00106 | 113.52227 | 23519 ft | 415 kts | 252° |
| 2026-04-21 13:28 | 20.99158 | 113.49310 | 23515 ft | 415 kts | 252° |
| 2026-04-21 13:28 | 20.98211 | 113.46395 | 23513 ft | 415 kts | 252° |
| 2026-04-21 13:29 | 20.97263 | 113.43483 | 23511 ft | 415 kts | 252° |
| 2026-04-21 13:29 | 20.96314 | 113.40571 | 23513 ft | 415 kts | 252° |
| 2026-04-21 13:29 | 20.95366 | 113.37658 | 23510 ft | 414 kts | 252° |
| 2026-04-21 13:29 | 20.94417 | 113.34747 | 23518 ft | 415 kts | 252° |
| 2026-04-21 13:30 | 20.93468 | 113.31836 | 23519 ft | 414 kts | 252° |
| 2026-04-21 13:30 | 20.92519 | 113.28928 | 23517 ft | 415 kts | 252° |
| 2026-04-21 13:30 | 20.91568 | 113.26016 | 23511 ft | 415 kts | 252° |
| 2026-04-21 13:30 | 20.90617 | 113.23106 | 23513 ft | 414 kts | 252° |
| 2026-04-21 13:31 | 20.89665 | 113.20194 | 23515 ft | 415 kts | 252° |
| 2026-04-21 13:31 | 20.88713 | 113.17285 | 23515 ft | 414 kts | 252° |
| 2026-04-21 13:31 | 20.87761 | 113.14381 | 23512 ft | 414 kts | 252° |
| 2026-04-21 13:31 | 20.86810 | 113.11477 | 23513 ft | 414 kts | 252° |
| 2026-04-21 13:32 | 20.85858 | 113.08571 | 23510 ft | 414 kts | 252° |
| 2026-04-21 13:32 | 20.84906 | 113.05672 | 23508 ft | 413 kts | 252° |
| 2026-04-21 13:32 | 20.83954 | 113.02773 | 23510 ft | 413 kts | 252° |
| 2026-04-21 13:32 | 20.83002 | 112.99873 | 23510 ft | 413 kts | 252° |
| 2026-04-21 13:33 | 20.82049 | 112.96973 | 23511 ft | 413 kts | 252° |
| 2026-04-21 13:33 | 20.81096 | 112.94079 | 23508 ft | 413 kts | 252° |
| 2026-04-21 13:33 | 20.80142 | 112.91184 | 23509 ft | 413 kts | 252° |
| 2026-04-21 13:33 | 20.79188 | 112.88286 | 23507 ft | 413 kts | 252° |
| 2026-04-21 13:34 | 20.78234 | 112.85392 | 23506 ft | 413 kts | 252° |
| 2026-04-21 13:34 | 20.77279 | 112.82495 | 23507 ft | 413 kts | 252° |
| 2026-04-21 13:34 | 20.76325 | 112.79604 | 23505 ft | 413 kts | 252° |
| 2026-04-21 13:34 | 20.75370 | 112.76712 | 23509 ft | 413 kts | 252° |
| 2026-04-21 13:35 | 20.74414 | 112.73818 | 23506 ft | 413 kts | 252° |
| 2026-04-21 13:35 | 20.73458 | 112.70926 | 23510 ft | 413 kts | 252° |
| 2026-04-21 13:35 | 20.72502 | 112.68038 | 23506 ft | 413 kts | 252° |
| 2026-04-21 13:35 | 20.71546 | 112.65150 | 23507 ft | 413 kts | 252° |
| 2026-04-21 13:36 | 20.70589 | 112.62260 | 23504 ft | 413 kts | 252° |
| 2026-04-21 13:36 | 20.69631 | 112.59370 | 23500 ft | 412 kts | 251° |
| 2026-04-21 13:36 | 20.68675 | 112.56485 | 23505 ft | 412 kts | 251° |
| 2026-04-21 13:36 | 20.67716 | 112.53598 | 23502 ft | 412 kts | 251° |
| 2026-04-21 13:37 | 20.66758 | 112.50714 | 23502 ft | 412 kts | 251° |
| 2026-04-21 13:37 | 20.65800 | 112.47829 | 23501 ft | 412 kts | 251° |
| 2026-04-21 13:37 | 20.64841 | 112.44946 | 23498 ft | 412 kts | 251° |
| 2026-04-21 13:37 | 20.63881 | 112.42061 | 23501 ft | 413 kts | 251° |
| 2026-04-21 13:38 | 20.62921 | 112.39176 | 23500 ft | 412 kts | 251° |
| 2026-04-21 13:38 | 20.61960 | 112.36291 | 23499 ft | 412 kts | 251° |
| 2026-04-21 13:38 | 20.60999 | 112.33409 | 23500 ft | 412 kts | 251° |
| 2026-04-21 13:38 | 20.60039 | 112.30528 | 23497 ft | 412 kts | 251° |
| 2026-04-21 13:39 | 20.59078 | 112.27648 | 23498 ft | 412 kts | 251° |
| 2026-04-21 13:39 | 20.58116 | 112.24769 | 23494 ft | 412 kts | 251° |
| 2026-04-21 13:39 | 20.57154 | 112.21890 | 23494 ft | 412 kts | 251° |
| 2026-04-21 13:39 | 20.56238 | 112.19000 | 23491 ft | 411 kts | 257° |
| 2026-04-21 13:40 | 20.55874 | 112.15988 | 23494 ft | 410 kts | 271° |
| 2026-04-21 13:40 | 20.56226 | 112.12981 | 23492 ft | 409 kts | 285° |
| 2026-04-21 13:40 | 20.57248 | 112.10155 | 23497 ft | 410 kts | 295° |
| 2026-04-21 13:40 | 20.58495 | 112.07417 | 23492 ft | 410 kts | 295° |
| 2026-04-21 13:41 | 20.59737 | 112.04686 | 23493 ft | 409 kts | 295° |
| 2026-04-21 13:41 | 20.60978 | 112.01950 | 23496 ft | 410 kts | 295° |
| 2026-04-21 13:41 | 20.62217 | 111.99212 | 23491 ft | 409 kts | 295° |
| 2026-04-21 13:41 | 20.63452 | 111.96479 | 23492 ft | 409 kts | 295° |
| 2026-04-21 13:42 | 20.64688 | 111.93739 | 23489 ft | 409 kts | 295° |
| 2026-04-21 13:42 | 20.65905 | 111.91040 | 23493 ft | 409 kts | 295° |
| 2026-04-21 13:42 | 20.67139 | 111.88302 | 23491 ft | 409 kts | 295° |
| 2026-04-21 13:42 | 20.68372 | 111.85567 | 23489 ft | 409 kts | 295° |
| 2026-04-21 13:43 | 20.69603 | 111.82833 | 23493 ft | 409 kts | 295° |
| 2026-04-21 13:43 | 20.70835 | 111.80095 | 23488 ft | 408 kts | 295° |
| 2026-04-21 13:43 | 20.72064 | 111.77364 | 23488 ft | 408 kts | 295° |
| 2026-04-21 13:43 | 20.73293 | 111.74630 | 23489 ft | 408 kts | 295° |
| 2026-04-21 13:44 | 20.74521 | 111.71897 | 23487 ft | 408 kts | 295° |
| 2026-04-21 13:44 | 20.75750 | 111.69161 | 23491 ft | 408 kts | 295° |
| 2026-04-21 13:44 | 20.76978 | 111.66426 | 23489 ft | 408 kts | 295° |
| 2026-04-21 13:44 | 20.78207 | 111.63689 | 23490 ft | 408 kts | 295° |
| 2026-04-21 13:45 | 20.79433 | 111.60955 | 23486 ft | 408 kts | 295° |
| 2026-04-21 13:45 | 20.80660 | 111.58217 | 23491 ft | 408 kts | 295° |
| 2026-04-21 13:45 | 20.81886 | 111.55481 | 23483 ft | 408 kts | 295° |
| 2026-04-21 13:45 | 20.82954 | 111.52676 | 23486 ft | 407 kts | 285° |
| 2026-04-21 13:46 | 20.83388 | 111.49696 | 23484 ft | 407 kts | 271° |
| 2026-04-21 13:46 | 20.83133 | 111.46687 | 23489 ft | 408 kts | 258° |
| 2026-04-21 13:46 | 20.82271 | 111.43799 | 23487 ft | 409 kts | 251° |
| 2026-04-21 13:46 | 20.81307 | 111.40945 | 23480 ft | 408 kts | 251° |
| 2026-04-21 13:47 | 20.80345 | 111.38090 | 23482 ft | 408 kts | 251° |
| 2026-04-21 13:47 | 20.79385 | 111.35234 | 23484 ft | 408 kts | 251° |
| 2026-04-21 13:47 | 20.78427 | 111.32380 | 23483 ft | 408 kts | 251° |
| 2026-04-21 13:47 | 20.77470 | 111.29531 | 23475 ft | 408 kts | 251° |
| 2026-04-21 13:48 | 20.76512 | 111.26678 | 23483 ft | 408 kts | 251° |
| 2026-04-21 13:48 | 20.75552 | 111.23825 | 23476 ft | 408 kts | 251° |
| 2026-04-21 13:48 | 20.74594 | 111.20975 | 23476 ft | 407 kts | 251° |
| 2026-04-21 13:48 | 20.73635 | 111.18129 | 23481 ft | 407 kts | 251° |
| 2026-04-21 13:49 | 20.72676 | 111.15280 | 23476 ft | 408 kts | 251° |
| 2026-04-21 13:49 | 20.71715 | 111.12431 | 23477 ft | 408 kts | 251° |
| 2026-04-21 13:49 | 20.70754 | 111.09582 | 23474 ft | 408 kts | 251° |
| 2026-04-21 13:49 | 20.69794 | 111.06738 | 23419 ft | 406 kts | 251° |
| 2026-04-21 13:50 | 20.68840 | 111.03915 | 23072 ft | 403 kts | 251° |
| 2026-04-21 13:50 | 20.67891 | 111.01108 | 22554 ft | 400 kts | 251° |
| 2026-04-21 13:50 | 20.66962 | 110.98363 | 21972 ft | 397 kts | 251° |
| 2026-04-21 13:50 | 20.66014 | 110.95563 | 21375 ft | 394 kts | 251° |
| 2026-04-21 13:51 | 20.64852 | 110.92976 | 20781 ft | 393 kts | 238° |
| 2026-04-21 13:51 | 20.63083 | 110.90766 | 20195 ft | 393 kts | 223° |
| 2026-04-21 13:51 | 20.60820 | 110.89130 | 19613 ft | 394 kts | 208° |
| 2026-04-21 13:51 | 20.58321 | 110.87935 | 19056 ft | 393 kts | 206° |
| 2026-04-21 13:52 | 20.55828 | 110.86762 | 18500 ft | 390 kts | 206° |
| 2026-04-21 13:52 | 20.53356 | 110.85598 | 18007 ft | 386 kts | 206° |
| 2026-04-21 13:52 | 20.50901 | 110.84576 | 17832 ft | 373 kts | 200° |
| 2026-04-21 13:52 | 20.48412 | 110.83946 | 17591 ft | 364 kts | 192° |
| 2026-04-21 13:53 | 20.45901 | 110.83673 | 17159 ft | 361 kts | 186° |
| 2026-04-21 13:53 | 20.43403 | 110.83492 | 16698 ft | 358 kts | 187° |
| 2026-04-21 13:53 | 20.40929 | 110.83304 | 16238 ft | 355 kts | 187° |
| 2026-04-21 13:53 | 20.38476 | 110.83114 | 15798 ft | 351 kts | 187° |
| 2026-04-21 13:54 | 20.36049 | 110.82925 | 15362 ft | 348 kts | 187° |
| 2026-04-21 13:54 | 20.33644 | 110.82738 | 14929 ft | 345 kts | 187° |
| 2026-04-21 13:54 | 20.31256 | 110.82552 | 14491 ft | 343 kts | 187° |
| 2026-04-21 13:54 | 20.28887 | 110.82367 | 14067 ft | 340 kts | 187° |
| 2026-04-21 13:55 | 20.26539 | 110.82185 | 13656 ft | 337 kts | 187° |
| 2026-04-21 13:55 | 20.24209 | 110.82004 | 13203 ft | 334 kts | 187° |
| 2026-04-21 13:55 | 20.22679 | 110.81884 | 12909 ft | 332 kts | 187° |
| 2026-04-21 13:55 | 20.20400 | 110.81707 | 12710 ft | 327 kts | 187° |
| 2026-04-21 13:56 | 20.19699 | 110.81652 | 12692 ft | 329 kts | 187° |
| 2026-04-21 13:56 | 20.18344 | 110.81546 | 12653 ft | 331 kts | 187° |
| 2026-04-21 13:57 | 20.16048 | 110.81366 | 12653 ft | 331 kts | 187° |
| 2026-04-21 13:57 | 20.13750 | 110.81187 | 12650 ft | 331 kts | 187° |
| 2026-04-21 13:57 | 20.11455 | 110.81008 | 12649 ft | 331 kts | 187° |
| 2026-04-21 13:57 | 20.09159 | 110.80828 | 12648 ft | 331 kts | 187° |
| 2026-04-21 13:58 | 20.06912 | 110.80216 | 12652 ft | 342 kts | 208° |
| 2026-04-21 13:58 | 20.05031 | 110.78784 | 12649 ft | 325 kts | 226° |
| 2026-04-21 13:58 | 20.03497 | 110.77067 | 12643 ft | 318 kts | 230° |
| 2026-04-21 13:58 | 20.02016 | 110.75292 | 12644 ft | 324 kts | 230° |
| 2026-04-21 13:59 | 20.00508 | 110.73514 | 12609 ft | 322 kts | 229° |
| 2026-04-21 13:59 | 19.98991 | 110.71780 | 12366 ft | 319 kts | 228° |
| 2026-04-21 13:59 | 19.97465 | 110.70074 | 11973 ft | 318 kts | 227° |
| 2026-04-21 13:59 | 19.95937 | 110.68389 | 11557 ft | 316 kts | 227° |
| 2026-04-21 14:00 | 19.94414 | 110.66716 | 11140 ft | 314 kts | 227° |
| 2026-04-21 14:00 | 19.92900 | 110.65054 | 10713 ft | 312 kts | 227° |
| 2026-04-21 14:00 | 19.91396 | 110.63407 | 10318 ft | 309 kts | 226° |
| 2026-04-21 14:00 | 19.89900 | 110.61767 | 9886 ft | 308 kts | 226° |
| 2026-04-21 14:01 | 19.88417 | 110.60140 | 9466 ft | 306 kts | 226° |
| 2026-04-21 14:01 | 19.86946 | 110.58522 | 9014 ft | 304 kts | 226° |
| 2026-04-21 14:01 | 19.85626 | 110.56787 | 8553 ft | 302 kts | 241° |
| 2026-04-21 14:01 | 19.84993 | 110.54674 | 8130 ft | 302 kts | 262° |
| 2026-04-21 14:02 | 19.84948 | 110.52441 | 7674 ft | 302 kts | 268° |
| 2026-04-21 14:02 | 19.84960 | 110.50222 | 7232 ft | 301 kts | 268° |
| 2026-04-21 14:02 | 19.84969 | 110.48001 | 6797 ft | 300 kts | 268° |
| 2026-04-21 14:03 | 19.84973 | 110.43650 | 6333 ft | 285 kts | 268° |
| 2026-04-21 14:03 | 19.84969 | 110.41596 | 6220 ft | 272 kts | 267° |
| 2026-04-21 14:03 | 19.84961 | 110.39622 | 6060 ft | 264 kts | 267° |
| 2026-04-21 14:03 | 19.84951 | 110.37679 | 5690 ft | 263 kts | 267° |
| 2026-04-21 14:04 | 19.84942 | 110.35741 | 5356 ft | 262 kts | 267° |
| 2026-04-21 14:04 | 19.84933 | 110.33809 | 5026 ft | 262 kts | 267° |
| 2026-04-21 14:04 | 19.84926 | 110.31881 | 4668 ft | 261 kts | 267° |
| 2026-04-21 14:04 | 19.84920 | 110.29950 | 4357 ft | 261 kts | 268° |
| 2026-04-21 14:05 | 19.84916 | 110.28060 | 4115 ft | 258 kts | 267° |
| 2026-04-21 14:05 | 19.84909 | 110.26143 | 3816 ft | 256 kts | 267° |
| 2026-04-21 14:05 | 19.84900 | 110.24275 | 3652 ft | 247 kts | 267° |
| 2026-04-21 14:05 | 19.84893 | 110.22515 | 3567 ft | 236 kts | 267° |
| 2026-04-21 14:06 | 19.84889 | 110.20824 | 3453 ft | 223 kts | 266° |
| 2026-04-21 14:06 | 19.84926 | 110.19217 | 3380 ft | 216 kts | 277° |
| 2026-04-21 14:06 | 19.85576 | 110.17805 | 3218 ft | 217 kts | 311° |
| 2026-04-21 14:06 | 19.86859 | 110.17052 | 3199 ft | 209 kts | 346° |
| 2026-04-21 14:07 | 19.88271 | 110.17202 | 3036 ft | 203 kts | 23° |
| 2026-04-21 14:07 | 19.89522 | 110.17876 | 3021 ft | 207 kts | 28° |
| 2026-04-21 14:07 | 19.90800 | 110.18586 | 3016 ft | 205 kts | 28° |
| 2026-04-21 14:07 | 19.92086 | 110.19287 | 3016 ft | 210 kts | 27° |
| 2026-04-21 14:08 | 19.93377 | 110.19999 | 3013 ft | 207 kts | 28° |
| 2026-04-21 14:08 | 19.94651 | 110.20695 | 3002 ft | 203 kts | 28° |
| 2026-04-21 14:08 | 19.95867 | 110.21355 | 3010 ft | 195 kts | 27° |
| 2026-04-21 14:08 | 19.97064 | 110.22081 | 2997 ft | 198 kts | 43° |
| 2026-04-21 14:09 | 19.97760 | 110.23293 | 2994 ft | 188 kts | 83° |
| 2026-04-21 14:09 | 19.97600 | 110.24624 | 3011 ft | 181 kts | 116° |
| 2026-04-21 14:09 | 19.97117 | 110.25858 | 3010 ft | 184 kts | 117° |
| 2026-04-21 14:09 | 19.96613 | 110.27114 | 3025 ft | 186 kts | 117° |
| 2026-04-21 14:10 | 19.96097 | 110.28372 | 2975 ft | 183 kts | 118° |
| 2026-04-21 14:10 | 19.95588 | 110.29603 | 2904 ft | 181 kts | 117° |
| 2026-04-21 14:10 | 19.95087 | 110.30846 | 2728 ft | 181 kts | 118° |
| 2026-04-21 14:10 | 19.94612 | 110.32066 | 2363 ft | 176 kts | 118° |
| 2026-04-21 14:11 | 19.94179 | 110.33251 | 2061 ft | 166 kts | 117° |
| 2026-04-21 14:11 | 19.93767 | 110.34455 | 1914 ft | 181 kts | 114° |
| 2026-04-21 14:11 | 19.93532 | 110.35739 | 1617 ft | 173 kts | 103° |
| 2026-04-21 14:11 | 19.93476 | 110.36943 | 1372 ft | 154 kts | 98° |
| 2026-04-21 14:12 | 19.93469 | 110.38025 | 1173 ft | 139 kts | 98° |
| 2026-04-21 14:12 | 19.93455 | 110.39029 | 1005 ft | 137 kts | 99° |
| 2026-04-21 14:12 | 19.93460 | 110.40022 | 858 ft | 135 kts | 97° |
| 2026-04-21 14:12 | 19.93452 | 110.41036 | 623 ft | 136 kts | 95° |
| 2026-04-21 14:13 | 19.93444 | 110.42005 | 491 ft | 132 kts | 92° |
| 2026-04-21 14:13 | 19.93458 | 110.42976 | 350 ft | 134 kts | 91° |
| 2026-04-21 14:13 | 19.93469 | 110.43967 | 164 ft | 134 kts | 91° |
| 2026-04-21 14:13 | 19.93485 | 110.44938 | 61 ft | 124 kts | 97° |
| 2026-04-21 14:14 | 19.93472 | 110.45655 | 69 ft | 68 kts | 89° |
| 2026-04-21 14:14 | 19.93477 | 110.46060 | 68 ft | 39 kts | 89° |
| 2026-04-21 14:14 | 19.93480 | 110.46343 | 65 ft | 32 kts | 84° |
| 2026-04-21 14:14 | 19.93515 | 110.46516 | 60 ft | 15 kts | 65° |
| 2026-04-21 14:15 | 19.93572 | 110.46628 | 62 ft | 20 kts | 60° |
| 2026-04-21 14:15 | 19.93641 | 110.46753 | 60 ft | 12 kts | 56° |
| 2026-04-21 14:15 | 19.93665 | 110.46836 | 59 ft | 11 kts | 82° |
| 2026-04-21 14:15 | 19.93733 | 110.46870 | 55 ft | 14 kts | 357° |
| 2026-04-21 14:16 | 19.93846 | 110.46868 | 53 ft | 18 kts | 1° |
| 2026-04-21 14:16 | 19.93984 | 110.46869 | 55 ft | 21 kts | 360° |
| 2026-04-21 14:16 | 19.94136 | 110.46869 | 57 ft | 21 kts | 360° |
| 2026-04-21 14:16 | 19.94293 | 110.46869 | 54 ft | 24 kts | 360° |
| 2026-04-21 14:17 | 19.94469 | 110.46868 | 54 ft | 27 kts | 0° |
| 2026-04-21 14:17 | 19.94649 | 110.46867 | 52 ft | 24 kts | 0° |
| 2026-04-21 14:17 | 19.94816 | 110.46866 | 55 ft | 20 kts | 359° |
| 2026-04-21 14:17 | 19.94961 | 110.46867 | 53 ft | 22 kts | 0° |
| 2026-04-21 14:18 | 19.95069 | 110.46866 | 51 ft | 10 kts | 359° |
| 2026-04-21 14:18 | 19.95124 | 110.46829 | 59 ft | 11 kts | 272° |
| 2026-04-21 14:18 | 19.95122 | 110.46733 | 57 ft | 16 kts | 269° |
| 2026-04-21 14:18 | 19.95123 | 110.46579 | 54 ft | 24 kts | 270° |
| 2026-04-21 14:19 | 19.95123 | 110.46408 | 53 ft | 24 kts | 270° |
| 2026-04-21 14:19 | 19.95123 | 110.46250 | 56 ft | 21 kts | 270° |
| 2026-04-21 14:19 | 19.95123 | 110.46095 | 53 ft | 17 kts | 270° |
| 2026-04-21 14:19 | 19.95122 | 110.45997 | 55 ft | 9 kts | 269° |
| 2026-04-21 14:20 | 19.95072 | 110.45965 | 54 ft | 11 kts | 176° |
| 2026-04-21 14:20 | 19.94999 | 110.45921 | 57 ft | 14 kts | 225° |
| 2026-04-21 14:20 | 19.94964 | 110.45861 | 55 ft | 7 kts | 256° |
| 2026-04-21 14:20 | 19.94937 | 110.45838 | 58 ft | 6 kts | 176° |
| 2026-04-21 14:21 | 19.94891 | 110.45840 | 52 ft | 7 kts | 179° |
| 2026-04-21 14:21 | 19.94863 | 110.45840 | 52 ft | 2 kts | 179° |
| 2026-04-21 14:21 | 19.94860 | 110.45840 | 53 ft | 0 kts | 178° |